QTR3M OTHH-OMDB
Flight info
| Callsign | QTR3M |
|---|---|
| Flight time | N/A |
| Altitude | 21000 |
| Route | ALSEM L305 ITBUL M677 VUTEB |
| Aircraft | A359/H-SDE2E3GHIJ3J4J5LM1ORWXY/LB1D1 |
Departure
| Time | N/A |
|---|---|
| Airport | Hamad International Airport (OTHH) |
Arrival
| Time | 2026-05-04 17:18 |
|---|---|
| Airport | Dubai International Airport (OMDB) |
| Time | Latitude | Longitude | Altitude | Speed | Heading |
|---|---|---|---|---|---|
| 2026-05-04 16:57 | 25.62190 | 53.44915 | 20772 ft | 477 kts | 74° |
| 2026-05-04 16:58 | 25.64765 | 53.55555 | 20768 ft | 477 kts | 74° |
| 2026-05-04 16:58 | 25.65621 | 53.59099 | 20768 ft | 477 kts | 74° |
| 2026-05-04 16:59 | 25.70840 | 53.80778 | 20769 ft | 477 kts | 74° |
| 2026-05-04 17:00 | 25.77239 | 54.36476 | 18614 ft | 455 kts | 110° |
| 2026-05-04 17:00 | 25.65671 | 54.72646 | 13244 ft | 360 kts | 108° |
| 2026-05-04 17:01 | 25.63355 | 54.79850 | 12965 ft | 376 kts | 108° |
| 2026-05-04 17:01 | 25.61595 | 54.85311 | 12255 ft | 374 kts | 108° |
| 2026-05-04 17:02 | 25.59675 | 54.90654 | 11676 ft | 377 kts | 112° |
| 2026-05-04 17:02 | 25.57557 | 54.95939 | 11282 ft | 374 kts | 112° |
| 2026-05-04 17:03 | 25.56516 | 54.98574 | 11085 ft | 373 kts | 111° |
| 2026-05-04 17:03 | 25.55495 | 55.01171 | 10904 ft | 372 kts | 111° |
| 2026-05-04 17:03 | 25.53165 | 55.06252 | 10506 ft | 369 kts | 118° |
| 2026-05-04 17:04 | 25.50602 | 55.11162 | 10102 ft | 367 kts | 118° |
| 2026-05-04 17:04 | 25.48060 | 55.16044 | 9724 ft | 365 kts | 117° |
| 2026-05-04 17:05 | 25.45375 | 55.20753 | 9306 ft | 367 kts | 128° |
| 2026-05-04 17:05 | 25.41972 | 55.24953 | 8950 ft | 361 kts | 130° |
| 2026-05-04 17:06 | 25.38756 | 55.28864 | 8429 ft | 322 kts | 130° |
| 2026-05-04 17:06 | 25.37297 | 55.30646 | 7926 ft | 307 kts | 130° |
| 2026-05-04 17:07 | 25.34731 | 55.34274 | 6617 ft | 297 kts | 119° |
| 2026-05-04 17:07 | 25.34019 | 55.35557 | 6365 ft | 295 kts | 119° |
| 2026-05-04 17:07 | 25.32626 | 55.38083 | 5886 ft | 290 kts | 119° |
| 2026-05-04 17:07 | 25.31572 | 55.39990 | 5459 ft | 288 kts | 119° |
| 2026-05-04 17:08 | 25.30533 | 55.41865 | 5051 ft | 285 kts | 120° |
| 2026-05-04 17:08 | 25.28474 | 55.45567 | 4241 ft | 281 kts | 120° |
| 2026-05-04 17:08 | 25.27452 | 55.47402 | 3805 ft | 280 kts | 120° |
| 2026-05-04 17:09 | 25.26435 | 55.49236 | 3368 ft | 280 kts | 121° |
| 2026-05-04 17:09 | 25.25417 | 55.51069 | 2963 ft | 279 kts | 121° |
| 2026-05-04 17:09 | 25.24404 | 55.52888 | 2549 ft | 278 kts | 121° |
| 2026-05-04 17:10 | 25.22409 | 55.56479 | 2344 ft | 269 kts | 121° |
| 2026-05-04 17:10 | 25.19711 | 55.61313 | 2098 ft | 226 kts | 122° |
| 2026-05-04 17:11 | 25.18818 | 55.62701 | 2011 ft | 221 kts | 137° |
| 2026-05-04 17:11 | 25.17476 | 55.63462 | 2006 ft | 218 kts | 172° |
| 2026-05-04 17:11 | 25.14685 | 55.62627 | 2010 ft | 212 kts | 210° |
| 2026-05-04 17:12 | 25.13437 | 55.61873 | 1992 ft | 197 kts | 213° |
| 2026-05-04 17:12 | 25.12757 | 55.59363 | 2018 ft | 183 kts | 288° |
| 2026-05-04 17:13 | 25.14650 | 55.55685 | 1997 ft | 185 kts | 302° |
| 2026-05-04 17:14 | 25.16639 | 55.52067 | 2002 ft | 178 kts | 301° |
| 2026-05-04 17:14 | 25.17237 | 55.50983 | 1987 ft | 154 kts | 301° |
| 2026-05-04 17:14 | 25.18262 | 55.49131 | 1969 ft | 137 kts | 301° |
| 2026-05-04 17:15 | 25.18759 | 55.48233 | 1800 ft | 137 kts | 301° |
| 2026-05-04 17:15 | 25.19741 | 55.46458 | 1446 ft | 134 kts | 301° |
| 2026-05-04 17:16 | 25.20714 | 55.44701 | 1107 ft | 135 kts | 301° |
| 2026-05-04 17:16 | 25.22189 | 55.42054 | 589 ft | 135 kts | 298° |
| 2026-05-04 17:17 | 25.22670 | 55.41181 | 404 ft | 133 kts | 299° |
| 2026-05-04 17:17 | 25.24133 | 55.38508 | 29 ft | 122 kts | 302° |
| 2026-05-04 17:18 | 25.24448 | 55.37945 | 28 ft | 44 kts | 302° |
| 2026-05-04 17:18 | 25.24612 | 55.37536 | 28 ft | 14 kts | 274° |
| 2026-05-04 17:19 | 25.24618 | 55.37343 | 28 ft | 13 kts | 272° |
| 2026-05-04 17:19 | 25.24663 | 55.37193 | 28 ft | 0 kts | 300° |
| 2026-05-04 17:20 | 25.24658 | 55.37141 | 28 ft | 8 kts | 228° |
| 2026-05-04 17:20 | 25.24602 | 55.37099 | 28 ft | 11 kts | 213° |
| 2026-05-04 17:21 | 25.24537 | 55.37052 | 28 ft | 0 kts | 213° |